createdAt,value
2018-08-24T00:00:39.870Z,1.53
2018-08-24T00:03:06.688Z,1.40
2018-08-24T00:05:33.452Z,1.47
2018-08-24T00:08:00.122Z,16.27
2018-08-24T00:10:26.797Z,197.03
2018-08-24T00:12:53.556Z,27.47
2018-08-24T00:15:20.332Z,1.67
2018-08-24T00:17:47.547Z,1.50
2018-08-24T00:20:14.837Z,100.33
2018-08-24T00:22:41.467Z,1.37
2018-08-24T00:25:08.135Z,84.23
2018-08-24T00:27:34.813Z,229.03
2018-08-24T00:30:01.498Z,195.53
2018-08-24T00:32:28.761Z,1.70
2018-08-24T00:34:55.661Z,77.07
2018-08-24T00:37:22.335Z,1.57
2018-08-24T00:39:49.063Z,82.53
2018-08-24T00:42:15.885Z,75.17
2018-08-24T00:44:42.915Z,0.93
2018-08-24T00:47:09.573Z,1.27
2018-08-24T00:49:36.753Z,69.10
2018-08-24T00:52:04.119Z,226.50
2018-08-24T00:54:31.395Z,2.80
2018-08-24T00:56:58.107Z,1.97
2018-08-24T00:59:24.777Z,143.33
2018-08-24T01:01:51.467Z,360.13
2018-08-24T01:04:22.661Z,1.63
2018-08-24T01:06:49.387Z,71.83
2018-08-24T01:09:16.058Z,273.27
2018-08-24T01:11:48.429Z,1.50
2018-08-24T01:14:15.093Z,1.40
2018-08-24T01:16:47.307Z,60.60
2018-08-24T01:19:13.988Z,63.73
2018-08-24T01:21:40.712Z,1.90
2018-08-24T01:24:07.460Z,4.37
2018-08-24T01:26:34.123Z,2.57
2018-08-24T01:29:00.769Z,1.70
2018-08-24T01:31:27.548Z,1.53
2018-08-24T01:33:54.340Z,3.50
2018-08-24T01:36:21.028Z,1.70
2018-08-24T01:38:48.418Z,1.87
2018-08-24T01:41:15.079Z,1.43
2018-08-24T01:43:41.838Z,1.53
2018-08-24T01:46:11.852Z,5.40
2018-08-24T01:48:39.229Z,3.43
2018-08-24T01:51:05.894Z,2.40
2018-08-24T01:53:33.086Z,1.70
2018-08-24T01:55:59.812Z,94.63
2018-08-24T01:58:26.782Z,53.97
2018-08-24T02:00:53.680Z,48.07
2018-08-24T02:03:20.331Z,2.40
2018-08-24T02:05:47.409Z,105.43
2018-08-24T02:08:14.293Z,56.17
2018-08-24T02:10:41.238Z,8.10
2018-08-24T02:13:13.502Z,48.67
2018-08-24T02:15:44.459Z,309.27
2018-08-24T02:18:16.629Z,353.43
2018-08-24T02:20:49.091Z,1.70
2018-08-24T02:23:15.889Z,81.30
2018-08-24T02:25:43.174Z,228.47
2018-08-24T02:28:09.939Z,341.60
2018-08-24T02:30:36.775Z,307.57
2018-08-24T02:33:03.781Z,2.00
2018-08-24T02:35:30.471Z,5.03
2018-08-24T02:37:57.295Z,141.10
2018-08-24T02:40:23.961Z,313.60
2018-08-24T02:42:50.793Z,310.87
2018-08-24T02:45:17.431Z,321.83
2018-08-24T02:47:44.103Z,288.03
2018-08-24T02:50:10.923Z,338.47
2018-08-24T02:52:37.615Z,2.30
2018-08-24T02:55:04.356Z,125.37
2018-08-24T02:57:31.772Z,274.37
2018-08-24T02:59:58.421Z,289.07
2018-08-24T03:02:25.251Z,277.90
2018-08-24T03:04:52.063Z,264.53
2018-08-24T03:07:19.706Z,219.03
2018-08-24T03:09:46.370Z,1.90
2018-08-24T03:12:13.026Z,220.30
2018-08-24T03:14:39.792Z,302.97
2018-08-24T03:17:11.997Z,17.30
2018-08-24T03:19:38.859Z,48.20
2018-08-24T03:22:05.552Z,11.93
2018-08-24T03:24:32.349Z,2.30
2018-08-24T03:26:59.066Z,2.03
2018-08-24T03:29:25.959Z,1.77
2018-08-24T03:31:53.353Z,2.70
2018-08-24T03:34:20.023Z,40.10
2018-08-24T03:36:46.757Z,4.97
2018-08-24T03:39:13.413Z,11.73
2018-08-24T03:41:40.286Z,3.63
2018-08-24T03:44:07.068Z,1.60
2018-08-24T03:46:33.778Z,74.90
2018-08-24T03:49:00.486Z,106.37
2018-08-24T03:51:27.148Z,201.27
2018-08-24T03:53:53.852Z,101.43
2018-08-24T03:56:21.214Z,306.43
2018-08-24T03:58:47.892Z,294.10
2018-08-24T04:01:14.588Z,310.33
2018-08-24T04:03:41.354Z,268.27
2018-08-24T04:06:08.306Z,131.07
2018-08-24T04:08:35.098Z,288.80
2018-08-24T04:11:01.862Z,297.53
2018-08-24T04:13:28.820Z,325.33
2018-08-24T04:15:55.541Z,134.77
2018-08-24T04:18:23.703Z,301.33
2018-08-24T04:20:50.402Z,1.93
2018-08-24T04:23:17.078Z,25.53
2018-08-24T04:25:43.952Z,2.60
2018-08-24T04:28:10.583Z,312.50
2018-08-24T04:30:37.376Z,332.37
2018-08-24T04:33:04.759Z,272.40
2018-08-24T04:35:31.436Z,154.33
2018-08-24T04:37:58.080Z,6.63
2018-08-24T04:40:24.934Z,168.83
2018-08-24T04:42:51.611Z,70.63
2018-08-24T04:45:18.449Z,216.73
2018-08-24T04:47:45.277Z,329.23
2018-08-24T04:50:11.953Z,290.13
2018-08-24T04:52:38.740Z,222.23
2018-08-24T04:55:05.519Z,326.87
2018-08-24T04:57:32.496Z,317.20
2018-08-24T04:59:59.354Z,57.40
2018-08-24T05:02:26.072Z,1.47
2018-08-24T05:04:52.791Z,302.50
2018-08-24T05:07:19.530Z,297.20
2018-08-24T05:09:46.400Z,315.87
2018-08-24T05:12:13.163Z,312.80
2018-08-24T05:14:39.932Z,311.33
2018-08-24T05:17:06.687Z,1.20
2018-08-24T05:19:33.597Z,1.00
2018-08-24T05:22:00.491Z,9.10
2018-08-24T05:24:27.261Z,87.40
2018-08-24T05:26:54.233Z,62.83
2018-08-24T05:29:21.034Z,290.07
2018-08-24T05:31:47.774Z,109.67
2018-08-24T05:34:14.588Z,48.73
2018-08-24T05:36:42.152Z,162.10
2018-08-24T05:39:09.328Z,78.13
2018-08-24T05:41:36.588Z,1.47
2018-08-24T05:44:03.238Z,0.97
2018-08-24T05:46:30.000Z,2.20
2018-08-24T05:48:56.879Z,0.83
2018-08-24T05:51:23.686Z,43.50
2018-08-24T05:53:50.400Z,1.40
2018-08-24T05:56:17.172Z,59.97
2018-08-24T05:58:43.995Z,0.70
2018-08-24T06:01:10.913Z,23.30
2018-08-24T06:03:37.617Z,1.10
2018-08-24T06:06:04.755Z,7.07
2018-08-24T06:08:32.180Z,1.80
2018-08-24T06:10:59.286Z,1.37
2018-08-24T06:13:26.052Z,0.90
2018-08-24T06:15:52.815Z,17.67
2018-08-24T06:18:19.584Z,0.80
2018-08-24T06:20:46.348Z,0.80
2018-08-24T06:23:13.548Z,1.60
2018-08-24T06:25:40.390Z,108.47
2018-08-24T06:28:07.132Z,0.77
2018-08-24T06:30:34.921Z,4.70
2018-08-24T06:33:01.736Z,3.73
2018-08-24T06:35:28.433Z,1.27
2018-08-24T06:37:55.200Z,2.70
2018-08-24T06:40:22.080Z,55.33
2018-08-24T06:42:48.976Z,50.77
2018-08-24T06:45:15.783Z,15.43
2018-08-24T06:47:42.713Z,63.63
2018-08-24T06:50:09.560Z,152.30
2018-08-24T06:52:36.274Z,0.60
2018-08-24T06:55:03.063Z,63.60
2018-08-24T06:57:29.879Z,241.13
2018-08-24T06:59:56.632Z,1.00
2018-08-24T07:02:23.503Z,105.63
2018-08-24T07:04:50.303Z,95.73
2018-08-24T07:07:17.039Z,3.27
2018-08-24T07:09:43.700Z,1.50
2018-08-24T07:12:12.133Z,294.10
2018-08-24T07:14:39.243Z,132.60
2018-08-24T07:17:06.079Z,33.00
2018-08-24T07:19:33.670Z,0.53
2018-08-24T07:22:00.533Z,268.67
2018-08-24T07:24:27.338Z,271.37
2018-08-24T07:26:54.373Z,286.33
2018-08-24T07:29:21.141Z,245.33
2018-08-24T07:31:47.873Z,101.53
2018-08-24T07:34:15.800Z,345.67
2018-08-24T07:36:43.399Z,300.13
2018-08-24T07:39:13.085Z,277.57
2018-08-24T07:41:39.999Z,29.87
2018-08-24T07:44:06.936Z,247.27
2018-08-24T07:46:34.133Z,313.27
2018-08-24T07:49:00.814Z,219.00
2018-08-24T07:51:27.836Z,270.37
2018-08-24T07:53:54.661Z,275.33
2018-08-24T07:56:21.365Z,183.50
2018-08-24T07:58:48.079Z,255.97
2018-08-24T08:01:15.402Z,0.77
2018-08-24T08:03:42.247Z,275.87
2018-08-24T08:06:09.620Z,0.90
2018-08-24T08:08:37.149Z,0.90
2018-08-24T08:11:03.900Z,0.60
2018-08-24T08:13:30.767Z,0.87
2018-08-24T08:15:57.459Z,63.70
2018-08-24T08:18:24.195Z,196.50
2018-08-24T08:20:50.946Z,224.63
2018-08-24T08:23:17.702Z,184.57
2018-08-24T08:25:44.698Z,180.20
2018-08-24T08:28:11.422Z,191.10
2018-08-24T08:30:38.216Z,215.47
2018-08-24T08:33:04.880Z,203.57
2018-08-24T08:35:33.054Z,214.60
2018-08-24T08:38:00.642Z,189.70
2018-08-24T08:40:27.471Z,148.73
2018-08-24T08:42:54.200Z,147.40
2018-08-24T08:45:21.060Z,154.33
2018-08-24T08:47:47.916Z,133.70
2018-08-24T08:50:14.660Z,193.27
2018-08-24T08:52:41.517Z,137.30
2018-08-24T08:55:08.293Z,143.63
2018-08-24T08:57:34.974Z,142.70
2018-08-24T09:00:01.790Z,139.63
2018-08-24T09:02:28.552Z,105.93
2018-08-24T09:04:55.322Z,98.83
2018-08-24T09:07:22.071Z,108.67
2018-08-24T09:09:48.852Z,128.07
2018-08-24T09:12:15.829Z,101.53
2018-08-24T09:14:42.627Z,1.10
2018-08-24T09:17:15.032Z,141.73
2018-08-24T09:19:47.548Z,144.40
2018-08-24T09:22:19.895Z,133.87
2018-08-24T09:24:52.317Z,1.10
2018-08-24T09:27:24.740Z,167.83
2018-08-24T09:29:51.518Z,137.90
2018-08-24T09:32:18.443Z,155.10
2018-08-24T09:34:45.275Z,120.77
2018-08-24T09:37:17.861Z,0.80
2018-08-24T09:39:44.711Z,139.50
2018-08-24T09:42:11.435Z,95.73
2018-08-24T09:44:38.315Z,92.90
2018-08-24T09:47:10.601Z,101.97
2018-08-24T09:49:38.847Z,96.40
2018-08-24T09:52:11.138Z,100.47
2018-08-24T09:54:37.897Z,0.60
2018-08-24T09:57:04.608Z,0.60
2018-08-24T09:59:31.320Z,130.97
2018-08-24T10:02:03.641Z,5.87
2018-08-24T10:04:35.954Z,151.63
2018-08-24T10:07:08.365Z,99.90
2018-08-24T10:09:35.514Z,92.63
2018-08-24T10:12:02.303Z,119.13
2018-08-24T10:14:29.519Z,1.00
2018-08-24T10:16:56.249Z,113.23
2018-08-24T10:19:23.012Z,101.97
2018-08-24T10:21:49.719Z,158.90
2018-08-24T10:24:16.444Z,113.17
2018-08-24T10:26:44.049Z,0.60
2018-08-24T10:29:10.920Z,0.90
2018-08-24T10:31:37.820Z,0.97
2018-08-24T10:34:05.351Z,308.53
2018-08-24T10:36:32.722Z,0.87
2018-08-24T10:38:59.467Z,0.87
2018-08-24T10:41:26.131Z,0.83
2018-08-24T10:43:52.891Z,0.67
2018-08-24T10:46:19.798Z,0.70
2018-08-24T10:48:46.628Z,0.50
2018-08-24T10:51:14.420Z,0.70
2018-08-24T10:53:41.681Z,0.70
2018-08-24T10:56:09.097Z,0.60
2018-08-24T10:58:35.842Z,0.67
2018-08-24T11:01:02.579Z,1.27
2018-08-24T11:03:30.052Z,0.70
2018-08-24T11:05:56.767Z,0.80
2018-08-24T11:08:23.523Z,0.67
2018-08-24T11:10:50.312Z,0.60
2018-08-24T11:13:17.141Z,0.87
2018-08-24T11:15:48.074Z,0.60
2018-08-24T11:18:14.768Z,0.57
2018-08-24T11:20:41.883Z,0.67
2018-08-24T11:23:08.726Z,0.87
2018-08-24T11:25:35.505Z,0.40
2018-08-24T11:28:02.222Z,0.70
2018-08-24T11:30:28.993Z,0.70
2018-08-24T11:32:55.773Z,0.60
2018-08-24T11:35:22.584Z,0.80
2018-08-24T11:37:49.370Z,0.90
2018-08-24T11:40:16.233Z,0.70
2018-08-24T11:42:42.988Z,0.70
2018-08-24T11:45:09.886Z,0.80
2018-08-24T11:47:36.719Z,0.97
2018-08-24T11:50:03.463Z,0.73
2018-08-24T11:52:30.198Z,1.00
2018-08-24T11:54:56.970Z,1.07
2018-08-24T11:57:23.766Z,0.90
2018-08-24T11:59:50.540Z,1.10
2018-08-24T12:02:17.398Z,0.80
2018-08-24T12:04:44.259Z,1.10
2018-08-24T12:07:11.125Z,1.10
2018-08-24T12:09:37.911Z,0.80
2018-08-24T12:12:04.679Z,0.77
2018-08-24T12:14:31.414Z,1.00
2018-08-24T12:16:58.369Z,1.00
2018-08-24T12:19:25.113Z,1.10
2018-08-24T12:21:52.826Z,0.80
2018-08-24T12:24:19.561Z,0.93
2018-08-24T12:26:46.444Z,0.70
2018-08-24T12:29:13.825Z,0.80
2018-08-24T12:31:40.756Z,0.63
2018-08-24T12:34:07.471Z,0.60
2018-08-24T12:36:34.207Z,0.90
2018-08-24T12:39:01.073Z,0.70
2018-08-24T12:41:27.870Z,0.50
2018-08-24T12:43:55.915Z,0.70
2018-08-24T12:46:23.624Z,0.90
2018-08-24T12:48:50.373Z,0.80
2018-08-24T12:51:17.403Z,0.77
2018-08-24T12:53:44.235Z,0.57
2018-08-24T12:56:16.547Z,0.60
2018-08-24T12:58:43.354Z,0.80
2018-08-24T13:01:10.276Z,0.60
2018-08-24T13:03:37.195Z,0.63
2018-08-24T13:06:03.960Z,0.87
2018-08-24T13:08:30.773Z,0.63
2018-08-24T13:10:58.149Z,0.87
2018-08-24T13:13:24.864Z,0.57
2018-08-24T13:15:51.556Z,0.70
2018-08-24T13:18:18.418Z,0.80
2018-08-24T13:20:45.412Z,0.60
2018-08-24T13:23:12.169Z,0.90
2018-08-24T13:25:38.994Z,0.73
2018-08-24T13:28:05.774Z,1.10
2018-08-24T13:30:32.547Z,0.63
2018-08-24T13:33:00.646Z,0.80
2018-08-24T13:35:27.368Z,0.60
2018-08-24T13:37:54.121Z,0.67
2018-08-24T13:40:20.932Z,0.57
2018-08-24T13:42:48.638Z,0.70
2018-08-24T13:45:15.379Z,0.80
2018-08-24T13:47:42.220Z,0.70
2018-08-24T13:50:09.172Z,0.97
2018-08-24T13:52:36.106Z,0.90
2018-08-24T13:55:02.832Z,0.80
2018-08-24T13:57:29.740Z,0.70
2018-08-24T13:59:56.646Z,0.80
2018-08-24T14:02:23.407Z,0.90
2018-08-24T14:04:50.228Z,0.87
2018-08-24T14:07:16.938Z,0.80
2018-08-24T14:09:43.721Z,0.90
2018-08-24T14:12:10.588Z,0.57
2018-08-24T14:14:37.451Z,1.00
2018-08-24T14:17:04.335Z,0.77
2018-08-24T14:19:31.014Z,0.90
2018-08-24T14:21:57.746Z,0.73
2018-08-24T14:24:24.458Z,0.93
2018-08-24T14:26:51.437Z,1.00
2018-08-24T14:29:18.301Z,1.30
2018-08-24T14:31:45.872Z,0.87
2018-08-24T14:34:13.042Z,0.90
2018-08-24T14:36:39.995Z,1.23
2018-08-24T14:39:07.569Z,0.93
2018-08-24T14:41:34.386Z,0.90
2018-08-24T14:44:01.319Z,0.70
2018-08-24T14:46:28.218Z,0.90
2018-08-24T14:48:54.994Z,0.80
2018-08-24T14:51:21.788Z,1.00
2018-08-24T14:53:48.568Z,0.70
2018-08-24T14:56:15.291Z,0.80
2018-08-24T14:58:42.005Z,1.30
2018-08-24T15:01:08.973Z,0.97
2018-08-24T15:03:35.782Z,1.10
2018-08-24T15:06:02.596Z,0.87
2018-08-24T15:08:29.513Z,0.73
2018-08-24T15:10:56.338Z,1.10
2018-08-24T15:13:23.086Z,0.80
2018-08-24T15:15:49.899Z,0.70
2018-08-24T15:18:16.766Z,1.00
2018-08-24T15:20:43.511Z,0.90
2018-08-24T15:23:10.414Z,0.63
2018-08-24T15:25:37.075Z,0.80
2018-08-24T15:28:04.106Z,0.63
2018-08-24T15:30:31.513Z,0.60
2018-08-24T15:32:58.209Z,0.90
2018-08-24T15:35:24.990Z,1.13
2018-08-24T15:37:51.654Z,0.77
2018-08-24T15:40:19.316Z,0.80
2018-08-24T15:42:46.152Z,0.63
2018-08-24T15:45:13.755Z,0.80
2018-08-24T15:47:40.443Z,0.90
2018-08-24T15:50:07.139Z,0.60
2018-08-24T15:52:33.889Z,0.70
2018-08-24T15:55:00.750Z,0.60
2018-08-24T15:57:27.484Z,0.80
2018-08-24T15:59:54.594Z,0.60
2018-08-24T16:02:21.401Z,0.40
2018-08-24T16:04:49.032Z,0.70
2018-08-24T16:07:15.760Z,0.73
2018-08-24T16:09:42.583Z,0.67
2018-08-24T16:12:09.382Z,1.10
2018-08-24T16:14:36.142Z,0.90
2018-08-24T16:17:02.969Z,0.57
2018-08-24T16:19:29.695Z,0.87
2018-08-24T16:21:56.559Z,0.50
2018-08-24T16:24:23.323Z,0.60
2018-08-24T16:26:50.085Z,0.60
2018-08-24T16:29:16.829Z,0.77
2018-08-24T16:31:43.619Z,1.00
2018-08-24T16:34:10.434Z,0.80
2018-08-24T16:36:37.234Z,0.70
2018-08-24T16:39:04.541Z,0.77
2018-08-24T16:41:31.370Z,0.50
2018-08-24T16:43:58.109Z,0.57
2018-08-24T16:46:24.910Z,0.73
2018-08-24T16:48:51.678Z,0.57
2018-08-24T16:51:18.447Z,0.77
2018-08-24T16:53:45.126Z,0.47
2018-08-24T16:56:11.860Z,0.67
2018-08-24T16:58:38.687Z,0.77
2018-08-24T17:01:05.576Z,0.80
2018-08-24T17:03:32.500Z,0.60
2018-08-24T17:05:59.196Z,0.70
2018-08-24T17:08:25.879Z,0.73
2018-08-24T17:10:52.646Z,0.63
2018-08-24T17:13:19.500Z,0.70
2018-08-24T17:15:46.297Z,0.60
2018-08-24T17:18:12.957Z,0.83
2018-08-24T17:20:39.689Z,0.60
2018-08-24T17:23:06.485Z,0.70
2018-08-24T17:25:34.193Z,0.63
2018-08-24T17:28:01.034Z,0.60
2018-08-24T17:30:28.763Z,0.70
2018-08-24T17:32:56.119Z,0.70
2018-08-24T17:35:22.915Z,0.90
2018-08-24T17:37:49.779Z,0.80
2018-08-24T17:40:16.579Z,0.67
2018-08-24T17:42:43.287Z,0.80
2018-08-24T17:45:10.061Z,1.03
2018-08-24T17:47:37.398Z,0.83
2018-08-24T17:50:04.210Z,0.90
2018-08-24T17:52:31.245Z,0.80
2018-08-24T17:54:58.081Z,0.73
2018-08-24T17:57:24.939Z,0.70
2018-08-24T17:59:51.684Z,0.67
2018-08-24T18:02:18.502Z,0.60
2018-08-24T18:04:45.544Z,0.83
2018-08-24T18:07:12.279Z,0.70
2018-08-24T18:09:39.109Z,0.60
2018-08-24T18:12:06.005Z,0.80
2018-08-24T18:14:33.185Z,0.53
2018-08-24T18:16:59.938Z,0.60
2018-08-24T18:19:26.730Z,0.60
2018-08-24T18:21:53.642Z,0.70
2018-08-24T18:24:20.590Z,0.87
2018-08-24T18:26:47.348Z,0.60
2018-08-24T18:29:14.332Z,0.73
2018-08-24T18:31:41.044Z,0.60
2018-08-24T18:34:07.750Z,0.70
2018-08-24T18:36:34.431Z,0.80
2018-08-24T18:39:02.118Z,0.50
2018-08-24T18:41:28.815Z,1.00
2018-08-24T18:43:55.568Z,0.90
2018-08-24T18:46:22.245Z,0.80
2018-08-24T18:48:49.287Z,0.70
2018-08-24T18:51:15.992Z,0.90
2018-08-24T18:53:43.589Z,0.73
2018-08-24T18:56:10.649Z,0.70
2018-08-24T18:58:37.434Z,0.70
2018-08-24T19:01:04.208Z,0.70
2018-08-24T19:03:31.170Z,0.67
2018-08-24T19:05:57.977Z,0.70
2018-08-24T19:08:24.674Z,0.50
2018-08-24T19:11:56.433Z,0.70
2018-08-24T19:14:23.112Z,0.87
2018-08-24T19:16:50.387Z,0.63
2018-08-24T19:19:22.671Z,0.77
2018-08-24T19:21:49.973Z,1.10
2018-08-24T19:24:16.930Z,0.60
2018-08-24T19:26:43.714Z,0.50
2018-08-24T19:29:16.071Z,0.63
2018-08-24T19:31:43.481Z,0.63
2018-08-24T19:34:10.711Z,0.70
2018-08-24T19:36:37.669Z,0.70
2018-08-24T19:39:04.389Z,0.67
2018-08-24T19:41:36.700Z,0.87
2018-08-24T19:44:03.530Z,0.77
2018-08-24T19:46:30.475Z,0.90
2018-08-24T19:49:02.810Z,1.33
2018-08-24T19:51:29.491Z,0.63
2018-08-24T19:53:57.204Z,0.90
2018-08-24T19:56:23.959Z,0.97
2018-08-24T19:58:56.284Z,0.97
2018-08-24T20:01:22.962Z,0.90
2018-08-24T20:03:49.613Z,1.10
2018-08-24T20:06:21.932Z,0.83
2018-08-24T20:08:54.490Z,0.83
2018-08-24T20:11:21.482Z,0.90
2018-08-24T20:13:48.125Z,0.80
2018-08-24T20:16:20.492Z,1.10
2018-08-24T20:18:47.177Z,1.10
2018-08-24T20:21:13.922Z,0.63
2018-08-24T20:23:41.205Z,0.67
2018-08-24T20:26:08.395Z,0.90
2018-08-24T20:28:35.120Z,0.73
2018-08-24T20:31:01.839Z,0.70
2018-08-24T20:33:28.615Z,0.80
2018-08-24T20:35:55.413Z,0.70
2018-08-24T20:38:22.227Z,1.13
2018-08-24T20:40:48.874Z,0.93
2018-08-24T20:43:15.578Z,0.83
2018-08-24T20:45:42.886Z,0.97
2018-08-24T20:48:10.144Z,0.80
2018-08-24T20:50:37.804Z,0.70
2018-08-24T20:53:04.487Z,0.60
2018-08-24T20:55:31.212Z,0.50
2018-08-24T20:57:58.106Z,0.80
2018-08-24T21:00:25.414Z,0.83
2018-08-24T21:02:52.168Z,0.73
2018-08-24T21:05:18.984Z,0.70
2018-08-24T21:07:45.803Z,0.97
2018-08-24T21:10:12.886Z,1.00
2018-08-24T21:12:39.801Z,1.17
2018-08-24T21:15:06.667Z,1.17
2018-08-24T21:17:33.466Z,0.80
2018-08-24T21:20:00.265Z,0.93
2018-08-24T21:22:27.060Z,0.97
2018-08-24T21:24:53.745Z,0.67
2018-08-24T21:27:20.598Z,0.80
2018-08-24T21:29:47.287Z,0.70
2018-08-24T21:32:14.032Z,0.77
2018-08-24T21:34:40.713Z,0.80
2018-08-24T21:37:07.392Z,0.80
2018-08-24T21:39:34.859Z,1.10
2018-08-24T21:42:01.735Z,1.10
2018-08-24T21:44:28.402Z,0.50
2018-08-24T21:46:55.263Z,0.80
2018-08-24T21:49:22.187Z,0.90
2018-08-24T21:51:48.932Z,0.70
2018-08-24T21:54:15.920Z,0.97
2018-08-24T21:56:42.795Z,0.90
2018-08-24T21:59:09.505Z,0.70
2018-08-24T22:01:36.232Z,0.70
2018-08-24T22:04:03.046Z,0.57
2018-08-24T22:06:30.297Z,0.80
2018-08-24T22:08:57.355Z,0.70
2018-08-24T22:11:24.202Z,0.80
2018-08-24T22:13:51.011Z,0.80
2018-08-24T22:16:17.898Z,0.97
2018-08-24T22:18:44.878Z,0.80
2018-08-24T22:21:11.644Z,0.93
2018-08-24T22:23:38.405Z,0.87
2018-08-24T22:26:05.333Z,0.60
2018-08-24T22:28:32.624Z,0.80
2018-08-24T22:30:59.442Z,0.90
2018-08-24T22:33:26.189Z,0.90
2018-08-24T22:35:52.876Z,0.67
2018-08-24T22:38:19.662Z,0.50
2018-08-24T22:40:47.254Z,0.83
2018-08-24T22:43:19.587Z,0.63
2018-08-24T22:45:46.435Z,0.77
2018-08-24T22:48:13.112Z,0.60
2018-08-24T22:50:40.063Z,0.63
2018-08-24T22:53:06.768Z,0.80
2018-08-24T22:55:33.549Z,1.00
2018-08-24T22:58:00.253Z,1.00
2018-08-24T23:00:26.976Z,0.70
2018-08-24T23:02:53.829Z,0.50
2018-08-24T23:05:20.713Z,0.60
2018-08-24T23:07:47.425Z,0.50
2018-08-24T23:10:14.197Z,0.90
2018-08-24T23:12:41.041Z,0.97
2018-08-24T23:15:07.711Z,0.70
2018-08-24T23:17:34.545Z,0.70
2018-08-24T23:20:01.420Z,0.67
2018-08-24T23:22:28.091Z,0.77
2018-08-24T23:24:54.865Z,0.90
2018-08-24T23:27:21.526Z,0.50
2018-08-24T23:29:48.798Z,0.80
2018-08-24T23:32:15.627Z,0.73
2018-08-24T23:34:42.501Z,0.60
2018-08-24T23:37:09.284Z,0.47
2018-08-24T23:39:36.009Z,0.50
2018-08-24T23:42:02.708Z,0.80
2018-08-24T23:44:29.592Z,0.57
2018-08-24T23:46:56.292Z,0.40
2018-08-24T23:49:23.054Z,0.50
2018-08-24T23:51:49.748Z,0.60
2018-08-24T23:54:18.065Z,0.50
2018-08-24T23:56:44.869Z,0.50
2018-08-24T23:59:12.254Z,0.63
